sensor_id;sensor_type;location;lat;lon;timestamp;temperature;humidity
4787;DHT22;62338;48.832;9.422;2022-08-03T00:00:33;20.80;99.90
4787;DHT22;62338;48.832;9.422;2022-08-03T00:02:35;20.80;99.90
4787;DHT22;62338;48.832;9.422;2022-08-03T00:04:37;20.90;99.90
4787;DHT22;62338;48.832;9.422;2022-08-03T00:06:39;20.90;99.90
4787;DHT22;62338;48.832;9.422;2022-08-03T00:08:41;20.90;99.90
4787;DHT22;62338;48.832;9.422;2022-08-03T00:10:43;20.90;99.90
4787;DHT22;62338;48.832;9.422;2022-08-03T00:12:44;20.90;1.00
4787;DHT22;62338;48.832;9.422;2022-08-03T00:14:46;20.90;99.90
4787;DHT22;62338;48.832;9.422;2022-08-03T00:16:49;20.90;1.00
4787;DHT22;62338;48.832;9.422;2022-08-03T00:18:51;20.90;1.00
4787;DHT22;62338;48.832;9.422;2022-08-03T00:20:53;20.90;1.00
4787;DHT22;62338;48.832;9.422;2022-08-03T00:22:55;20.90;1.00
4787;DHT22;62338;48.832;9.422;2022-08-03T00:24:57;20.80;99.90
4787;DHT22;62338;48.832;9.422;2022-08-03T00:26:59;20.70;99.90
4787;DHT22;62338;48.832;9.422;2022-08-03T00:29:01;20.70;99.90
4787;DHT22;62338;48.832;9.422;2022-08-03T00:31:02;20.60;1.00
4787;DHT22;62338;48.832;9.422;2022-08-03T00:33:04;20.50;1.00
4787;DHT22;62338;48.832;9.422;2022-08-03T00:35:08;20.40;1.00
4787;DHT22;62338;48.832;9.422;2022-08-03T00:37:27;20.30;1.00
4787;DHT22;62338;48.832;9.422;2022-08-03T00:39:42;20.30;99.90
4787;DHT22;62338;48.832;9.422;2022-08-03T00:41:46;20.10;1.00
4787;DHT22;62338;48.832;9.422;2022-08-03T00:43:49;20.10;99.90
4787;DHT22;62338;48.832;9.422;2022-08-03T00:45:51;20.10;1.00
4787;DHT22;62338;48.832;9.422;2022-08-03T00:47:55;20.20;1.00
4787;DHT22;62338;48.832;9.422;2022-08-03T00:49:57;20.10;1.00
4787;DHT22;62338;48.832;9.422;2022-08-03T00:51:59;20.00;1.00
4787;DHT22;62338;48.832;9.422;2022-08-03T00:54:10;20.00;1.00
4787;DHT22;62338;48.832;9.422;2022-08-03T00:56:13;19.90;1.00
4787;DHT22;62338;48.832;9.422;2022-08-03T00:58:16;19.90;99.90
4787;DHT22;62338;48.832;9.422;2022-08-03T01:00:21;19.90;99.90
4787;DHT22;62338;48.832;9.422;2022-08-03T01:02:23;19.90;99.90
4787;DHT22;62338;48.832;9.422;2022-08-03T01:04:25;19.80;99.90
4787;DHT22;62338;48.832;9.422;2022-08-03T01:06:45;19.80;99.90
4787;DHT22;62338;48.832;9.422;2022-08-03T01:09:08;19.70;99.90
4787;DHT22;62338;48.832;9.422;2022-08-03T01:11:23;19.70;1.00
4787;DHT22;62338;48.832;9.422;2022-08-03T01:14:14;19.70;1.00
4787;DHT22;62338;48.832;9.422;2022-08-03T01:16:27;19.70;1.00
4787;DHT22;62338;48.832;9.422;2022-08-03T01:18:46;19.70;1.00
4787;DHT22;62338;48.832;9.422;2022-08-03T01:20:56;19.70;1.00
4787;DHT22;62338;48.832;9.422;2022-08-03T01:23:14;19.70;1.00
4787;DHT22;62338;48.832;9.422;2022-08-03T01:30:32;19.70;1.00
4787;DHT22;62338;48.832;9.422;2022-08-03T01:32:54;19.70;1.00
4787;DHT22;62338;48.832;9.422;2022-08-03T01:35:12;19.60;1.00
4787;DHT22;62338;48.832;9.422;2022-08-03T01:37:25;19.60;1.00
4787;DHT22;62338;48.832;9.422;2022-08-03T01:39:30;19.70;1.00
4787;DHT22;62338;48.832;9.422;2022-08-03T01:41:36;19.70;1.00
4787;DHT22;62338;48.832;9.422;2022-08-03T01:43:41;19.70;1.00
4787;DHT22;62338;48.832;9.422;2022-08-03T01:46:06;19.70;1.00
4787;DHT22;62338;48.832;9.422;2022-08-03T01:48:11;19.70;1.00
4787;DHT22;62338;48.832;9.422;2022-08-03T01:50:21;19.70;1.00
4787;DHT22;62338;48.832;9.422;2022-08-03T01:52:24;19.70;1.00
4787;DHT22;62338;48.832;9.422;2022-08-03T01:54:28;19.70;1.00
4787;DHT22;62338;48.832;9.422;2022-08-03T01:56:30;19.70;1.00
4787;DHT22;62338;48.832;9.422;2022-08-03T01:58:34;19.70;1.00
4787;DHT22;62338;48.832;9.422;2022-08-03T02:00:37;19.70;1.00
4787;DHT22;62338;48.832;9.422;2022-08-03T02:02:41;19.70;1.00
4787;DHT22;62338;48.832;9.422;2022-08-03T02:04:46;19.70;1.00
4787;DHT22;62338;48.832;9.422;2022-08-03T02:06:49;19.70;1.00
4787;DHT22;62338;48.832;9.422;2022-08-03T02:09:04;19.60;1.00
4787;DHT22;62338;48.832;9.422;2022-08-03T02:11:07;19.60;1.00
4787;DHT22;62338;48.832;9.422;2022-08-03T02:13:09;19.70;1.00
4787;DHT22;62338;48.832;9.422;2022-08-03T02:15:14;19.70;1.00
4787;DHT22;62338;48.832;9.422;2022-08-03T02:17:18;19.60;1.00
4787;DHT22;62338;48.832;9.422;2022-08-03T02:19:41;19.60;1.00
4787;DHT22;62338;48.832;9.422;2022-08-03T02:21:45;19.50;1.00
4787;DHT22;62338;48.832;9.422;2022-08-03T02:24:02;19.50;1.00
4787;DHT22;62338;48.832;9.422;2022-08-03T02:26:08;19.40;1.00
4787;DHT22;62338;48.832;9.422;2022-08-03T02:28:16;19.40;1.00
4787;DHT22;62338;48.832;9.422;2022-08-03T02:30:18;19.30;1.00
4787;DHT22;62338;48.832;9.422;2022-08-03T02:32:29;19.20;1.00
4787;DHT22;62338;48.832;9.422;2022-08-03T02:34:34;19.20;1.00
4787;DHT22;62338;48.832;9.422;2022-08-03T02:36:38;19.20;1.00
4787;DHT22;62338;48.832;9.422;2022-08-03T02:38:42;19.20;1.00
4787;DHT22;62338;48.832;9.422;2022-08-03T02:40:45;19.10;1.00
4787;DHT22;62338;48.832;9.422;2022-08-03T02:42:51;19.10;1.00
4787;DHT22;62338;48.832;9.422;2022-08-03T02:44:56;19.20;1.00
4787;DHT22;62338;48.832;9.422;2022-08-03T02:47:05;19.20;1.00
4787;DHT22;62338;48.832;9.422;2022-08-03T02:49:10;19.20;1.00
4787;DHT22;62338;48.832;9.422;2022-08-03T02:51:34;19.10;1.00
4787;DHT22;62338;48.832;9.422;2022-08-03T02:53:38;19.10;1.00
4787;DHT22;62338;48.832;9.422;2022-08-03T02:55:41;19.10;1.00
4787;DHT22;62338;48.832;9.422;2022-08-03T02:57:48;19.10;1.00
4787;DHT22;62338;48.832;9.422;2022-08-03T02:59:51;19.10;1.00
4787;DHT22;62338;48.832;9.422;2022-08-03T03:01:54;19.00;1.00
4787;DHT22;62338;48.832;9.422;2022-08-03T03:03:56;19.00;1.00
4787;DHT22;62338;48.832;9.422;2022-08-03T03:05:58;18.90;1.00
4787;DHT22;62338;48.832;9.422;2022-08-03T03:08:06;18.90;1.00
4787;DHT22;62338;48.832;9.422;2022-08-03T03:10:21;18.90;1.00
4787;DHT22;62338;48.832;9.422;2022-08-03T03:12:23;18.80;1.00
4787;DHT22;62338;48.832;9.422;2022-08-03T03:14:27;18.90;1.00
4787;DHT22;62338;48.832;9.422;2022-08-03T03:16:35;18.90;1.00
4787;DHT22;62338;48.832;9.422;2022-08-03T03:18:37;18.90;1.00
4787;DHT22;62338;48.832;9.422;2022-08-03T03:20:40;18.90;1.00
4787;DHT22;62338;48.832;9.422;2022-08-03T03:22:42;18.80;1.00
4787;DHT22;62338;48.832;9.422;2022-08-03T03:24:46;18.80;1.00
4787;DHT22;62338;48.832;9.422;2022-08-03T03:26:49;18.70;1.00
4787;DHT22;62338;48.832;9.422;2022-08-03T03:28:51;18.70;1.00
4787;DHT22;62338;48.832;9.422;2022-08-03T03:30:53;18.70;1.00
4787;DHT22;62338;48.832;9.422;2022-08-03T03:32:57;18.60;1.00
4787;DHT22;62338;48.832;9.422;2022-08-03T03:34:59;18.70;1.00
4787;DHT22;62338;48.832;9.422;2022-08-03T03:37:02;18.70;1.00
4787;DHT22;62338;48.832;9.422;2022-08-03T03:39:04;18.70;1.00
4787;DHT22;62338;48.832;9.422;2022-08-03T03:41:16;18.70;1.00
4787;DHT22;62338;48.832;9.422;2022-08-03T03:43:22;18.70;1.00
4787;DHT22;62338;48.832;9.422;2022-08-03T03:45:25;18.60;1.00
4787;DHT22;62338;48.832;9.422;2022-08-03T03:47:27;18.60;1.00
4787;DHT22;62338;48.832;9.422;2022-08-03T03:49:33;18.60;1.00
4787;DHT22;62338;48.832;9.422;2022-08-03T03:51:35;18.60;1.00
4787;DHT22;62338;48.832;9.422;2022-08-03T03:53:37;18.60;1.00
4787;DHT22;62338;48.832;9.422;2022-08-03T03:55:40;18.70;1.00
4787;DHT22;62338;48.832;9.422;2022-08-03T03:58:03;18.70;1.00
4787;DHT22;62338;48.832;9.422;2022-08-03T04:00:05;18.70;1.00
4787;DHT22;62338;48.832;9.422;2022-08-03T04:02:09;18.70;1.00
4787;DHT22;62338;48.832;9.422;2022-08-03T04:04:11;18.80;1.00
4787;DHT22;62338;48.832;9.422;2022-08-03T04:06:31;18.90;1.00
4787;DHT22;62338;48.832;9.422;2022-08-03T04:08:51;18.90;1.00
4787;DHT22;62338;48.832;9.422;2022-08-03T04:11:37;18.80;1.00
4787;DHT22;62338;48.832;9.422;2022-08-03T04:13:39;18.80;1.00
4787;DHT22;62338;48.832;9.422;2022-08-03T04:15:42;18.80;1.00
4787;DHT22;62338;48.832;9.422;2022-08-03T04:17:45;18.80;1.00
4787;DHT22;62338;48.832;9.422;2022-08-03T04:19:49;18.90;1.00
4787;DHT22;62338;48.832;9.422;2022-08-03T04:21:56;19.10;1.00
4787;DHT22;62338;48.832;9.422;2022-08-03T04:24:02;19.10;1.00
4787;DHT22;62338;48.832;9.422;2022-08-03T04:26:07;19.30;1.00
4787;DHT22;62338;48.832;9.422;2022-08-03T04:28:10;19.30;1.00
4787;DHT22;62338;48.832;9.422;2022-08-03T04:30:32;19.40;1.00
4787;DHT22;62338;48.832;9.422;2022-08-03T04:32:37;19.40;1.00
4787;DHT22;62338;48.832;9.422;2022-08-03T04:34:46;19.40;1.00
4787;DHT22;62338;48.832;9.422;2022-08-03T04:36:51;19.40;1.00
4787;DHT22;62338;48.832;9.422;2022-08-03T04:39:04;19.50;1.00
4787;DHT22;62338;48.832;9.422;2022-08-03T04:41:08;19.50;1.00
4787;DHT22;62338;48.832;9.422;2022-08-03T04:43:12;19.60;1.00
4787;DHT22;62338;48.832;9.422;2022-08-03T04:45:16;19.70;1.00
4787;DHT22;62338;48.832;9.422;2022-08-03T04:47:19;19.70;1.00
4787;DHT22;62338;48.832;9.422;2022-08-03T04:49:22;19.80;1.00
4787;DHT22;62338;48.832;9.422;2022-08-03T04:51:25;19.80;1.00
4787;DHT22;62338;48.832;9.422;2022-08-03T04:53:27;19.80;1.00
4787;DHT22;62338;48.832;9.422;2022-08-03T04:55:30;19.90;1.00
4787;DHT22;62338;48.832;9.422;2022-08-03T04:57:32;20.00;1.00
4787;DHT22;62338;48.832;9.422;2022-08-03T04:59:34;20.10;1.00
4787;DHT22;62338;48.832;9.422;2022-08-03T05:01:41;20.10;1.00
4787;DHT22;62338;48.832;9.422;2022-08-03T05:03:43;20.20;1.00
4787;DHT22;62338;48.832;9.422;2022-08-03T05:05:45;20.20;1.00
4787;DHT22;62338;48.832;9.422;2022-08-03T05:07:51;20.20;1.00
4787;DHT22;62338;48.832;9.422;2022-08-03T05:09:53;20.30;1.00
4787;DHT22;62338;48.832;9.422;2022-08-03T05:12:04;20.30;1.00
4787;DHT22;62338;48.832;9.422;2022-08-03T05:14:06;20.30;1.00
4787;DHT22;62338;48.832;9.422;2022-08-03T05:16:08;20.40;1.00
4787;DHT22;62338;48.832;9.422;2022-08-03T05:18:10;20.40;1.00
4787;DHT22;62338;48.832;9.422;2022-08-03T05:20:15;20.50;1.00
4787;DHT22;62338;48.832;9.422;2022-08-03T05:22:20;20.50;1.00
4787;DHT22;62338;48.832;9.422;2022-08-03T05:24:22;20.50;1.00
4787;DHT22;62338;48.832;9.422;2022-08-03T05:26:24;20.50;1.00
4787;DHT22;62338;48.832;9.422;2022-08-03T05:28:27;20.50;1.00
4787;DHT22;62338;48.832;9.422;2022-08-03T05:30:29;20.50;1.00
4787;DHT22;62338;48.832;9.422;2022-08-03T05:32:35;20.50;1.00
4787;DHT22;62338;48.832;9.422;2022-08-03T05:34:38;20.60;1.00
4787;DHT22;62338;48.832;9.422;2022-08-03T05:36:40;20.50;1.00
4787;DHT22;62338;48.832;9.422;2022-08-03T05:38:42;20.60;1.00
4787;DHT22;62338;48.832;9.422;2022-08-03T05:40:44;20.60;1.00
4787;DHT22;62338;48.832;9.422;2022-08-03T05:42:58;20.60;1.00
4787;DHT22;62338;48.832;9.422;2022-08-03T05:45:03;20.60;1.00
4787;DHT22;62338;48.832;9.422;2022-08-03T05:47:15;20.60;1.00
4787;DHT22;62338;48.832;9.422;2022-08-03T05:49:18;20.60;1.00
4787;DHT22;62338;48.832;9.422;2022-08-03T05:51:20;20.70;1.00
4787;DHT22;62338;48.832;9.422;2022-08-03T05:53:22;20.80;1.00
4787;DHT22;62338;48.832;9.422;2022-08-03T05:55:24;20.80;1.00
4787;DHT22;62338;48.832;9.422;2022-08-03T05:57:26;20.90;1.00
4787;DHT22;62338;48.832;9.422;2022-08-03T05:59:28;21.00;1.00
4787;DHT22;62338;48.832;9.422;2022-08-03T06:01:39;21.00;1.00
4787;DHT22;62338;48.832;9.422;2022-08-03T06:03:41;21.10;1.00
4787;DHT22;62338;48.832;9.422;2022-08-03T06:05:43;21.20;1.00
4787;DHT22;62338;48.832;9.422;2022-08-03T06:08:01;21.30;1.00
4787;DHT22;62338;48.832;9.422;2022-08-03T06:10:03;21.40;1.00
4787;DHT22;62338;48.832;9.422;2022-08-03T06:12:26;21.50;1.00
4787;DHT22;62338;48.832;9.422;2022-08-03T06:14:28;21.60;1.00
4787;DHT22;62338;48.832;9.422;2022-08-03T06:16:29;21.70;1.00
4787;DHT22;62338;48.832;9.422;2022-08-03T06:18:31;21.70;1.00
4787;DHT22;62338;48.832;9.422;2022-08-03T06:20:33;21.80;1.00
4787;DHT22;62338;48.832;9.422;2022-08-03T06:22:35;21.90;1.00
4787;DHT22;62338;48.832;9.422;2022-08-03T06:24:51;21.90;1.00
4787;DHT22;62338;48.832;9.422;2022-08-03T06:26:54;22.00;1.00
4787;DHT22;62338;48.832;9.422;2022-08-03T06:28:56;22.00;1.00
4787;DHT22;62338;48.832;9.422;2022-08-03T06:30:58;22.10;1.00
4787;DHT22;62338;48.832;9.422;2022-08-03T06:32:59;22.10;1.00
4787;DHT22;62338;48.832;9.422;2022-08-03T06:35:01;22.20;1.00
4787;DHT22;62338;48.832;9.422;2022-08-03T06:37:03;22.20;1.00
4787;DHT22;62338;48.832;9.422;2022-08-03T06:39:05;22.20;1.00
4787;DHT22;62338;48.832;9.422;2022-08-03T06:41:08;22.30;1.00
4787;DHT22;62338;48.832;9.422;2022-08-03T06:43:10;22.40;1.00
4787;DHT22;62338;48.832;9.422;2022-08-03T06:45:16;22.50;1.00
4787;DHT22;62338;48.832;9.422;2022-08-03T06:47:18;22.60;1.00
4787;DHT22;62338;48.832;9.422;2022-08-03T06:49:20;22.70;1.00
4787;DHT22;62338;48.832;9.422;2022-08-03T06:51:21;22.80;1.00
4787;DHT22;62338;48.832;9.422;2022-08-03T06:53:44;22.90;99.90
4787;DHT22;62338;48.832;9.422;2022-08-03T06:55:45;23.00;1.00
4787;DHT22;62338;48.832;9.422;2022-08-03T06:57:54;23.20;99.90
4787;DHT22;62338;48.832;9.422;2022-08-03T07:00:04;23.30;1.00
4787;DHT22;62338;48.832;9.422;2022-08-03T07:02:11;23.60;99.90
4787;DHT22;62338;48.832;9.422;2022-08-03T07:04:19;23.80;99.90
4787;DHT22;62338;48.832;9.422;2022-08-03T07:06:21;24.20;99.90
4787;DHT22;62338;48.832;9.422;2022-08-03T07:08:23;24.90;1.00
4787;DHT22;62338;48.832;9.422;2022-08-03T07:10:34;26.30;99.90
4787;DHT22;62338;48.832;9.422;2022-08-03T07:12:37;28.00;1.00
4787;DHT22;62338;48.832;9.422;2022-08-03T07:14:57;29.20;1.00
4787;DHT22;62338;48.832;9.422;2022-08-03T07:17:02;30.50;99.90
4787;DHT22;62338;48.832;9.422;2022-08-03T07:19:12;31.50;55.60
4787;DHT22;62338;48.832;9.422;2022-08-03T07:21:14;32.00;18.90
4787;DHT22;62338;48.832;9.422;2022-08-03T07:23:17;32.10;1.00
4787;DHT22;62338;48.832;9.422;2022-08-03T07:25:20;32.40;1.00
4787;DHT22;62338;48.832;9.422;2022-08-03T07:27:22;33.20;1.00
4787;DHT22;62338;48.832;9.422;2022-08-03T07:29:24;33.60;1.00
4787;DHT22;62338;48.832;9.422;2022-08-03T07:31:25;34.00;1.00
4787;DHT22;62338;48.832;9.422;2022-08-03T07:33:34;34.40;1.00
4787;DHT22;62338;48.832;9.422;2022-08-03T07:35:36;34.70;1.00
4787;DHT22;62338;48.832;9.422;2022-08-03T07:37:38;34.80;1.00
4787;DHT22;62338;48.832;9.422;2022-08-03T07:39:40;34.80;1.00
4787;DHT22;62338;48.832;9.422;2022-08-03T07:41:41;35.10;1.00
4787;DHT22;62338;48.832;9.422;2022-08-03T07:43:43;35.00;1.00
4787;DHT22;62338;48.832;9.422;2022-08-03T07:45:45;35.10;1.00
4787;DHT22;62338;48.832;9.422;2022-08-03T07:47:46;35.10;1.00
4787;DHT22;62338;48.832;9.422;2022-08-03T07:49:54;35.70;1.00
4787;DHT22;62338;48.832;9.422;2022-08-03T07:51:56;35.70;1.00
4787;DHT22;62338;48.832;9.422;2022-08-03T07:54:17;36.20;1.00
4787;DHT22;62338;48.832;9.422;2022-08-03T07:56:18;35.90;1.00
4787;DHT22;62338;48.832;9.422;2022-08-03T07:58:20;36.00;1.00
4787;DHT22;62338;48.832;9.422;2022-08-03T08:00:24;36.20;1.00
4787;DHT22;62338;48.832;9.422;2022-08-03T08:02:26;35.60;1.00
4787;DHT22;62338;48.832;9.422;2022-08-03T08:04:28;36.00;1.00
4787;DHT22;62338;48.832;9.422;2022-08-03T08:06:30;36.20;1.00
4787;DHT22;62338;48.832;9.422;2022-08-03T08:08:33;36.20;1.00
4787;DHT22;62338;48.832;9.422;2022-08-03T08:10:35;36.20;1.00
4787;DHT22;62338;48.832;9.422;2022-08-03T08:12:38;36.40;1.00
4787;DHT22;62338;48.832;9.422;2022-08-03T08:14:40;36.60;1.00
4787;DHT22;62338;48.832;9.422;2022-08-03T08:16:42;36.30;1.00
4787;DHT22;62338;48.832;9.422;2022-08-03T08:18:44;36.10;1.00
4787;DHT22;62338;48.832;9.422;2022-08-03T08:20:46;36.30;1.00
4787;DHT22;62338;48.832;9.422;2022-08-03T08:22:48;36.70;1.00
4787;DHT22;62338;48.832;9.422;2022-08-03T08:24:52;37.00;1.00
4787;DHT22;62338;48.832;9.422;2022-08-03T08:26:55;37.00;1.00
4787;DHT22;62338;48.832;9.422;2022-08-03T08:28:57;37.50;1.00
4787;DHT22;62338;48.832;9.422;2022-08-03T08:31:00;37.00;1.00
4787;DHT22;62338;48.832;9.422;2022-08-03T08:33:02;36.90;1.00
4787;DHT22;62338;48.832;9.422;2022-08-03T08:35:04;37.50;1.00
4787;DHT22;62338;48.832;9.422;2022-08-03T08:37:06;37.30;1.00
4787;DHT22;62338;48.832;9.422;2022-08-03T08:39:08;37.10;1.00
4787;DHT22;62338;48.832;9.422;2022-08-03T08:41:12;37.50;1.00
4787;DHT22;62338;48.832;9.422;2022-08-03T08:43:15;37.70;1.00
4787;DHT22;62338;48.832;9.422;2022-08-03T08:45:17;37.90;1.00
4787;DHT22;62338;48.832;9.422;2022-08-03T08:47:23;37.20;1.00
4787;DHT22;62338;48.832;9.422;2022-08-03T08:49:25;37.30;1.00
4787;DHT22;62338;48.832;9.422;2022-08-03T08:51:33;37.40;1.00
4787;DHT22;62338;48.832;9.422;2022-08-03T08:54:00;38.00;1.00
4787;DHT22;62338;48.832;9.422;2022-08-03T08:56:04;37.70;1.00
4787;DHT22;62338;48.832;9.422;2022-08-03T08:58:09;37.60;1.00
4787;DHT22;62338;48.832;9.422;2022-08-03T09:00:11;37.30;1.00
4787;DHT22;62338;48.832;9.422;2022-08-03T09:02:16;37.70;1.00
4787;DHT22;62338;48.832;9.422;2022-08-03T09:04:19;37.90;1.00
4787;DHT22;62338;48.832;9.422;2022-08-03T09:06:21;37.80;1.00
4787;DHT22;62338;48.832;9.422;2022-08-03T09:08:23;37.90;1.00
4787;DHT22;62338;48.832;9.422;2022-08-03T09:10:25;37.20;1.00
4787;DHT22;62338;48.832;9.422;2022-08-03T09:12:27;36.80;1.00
4787;DHT22;62338;48.832;9.422;2022-08-03T09:14:43;36.70;1.00
4787;DHT22;62338;48.832;9.422;2022-08-03T09:17:04;37.40;1.00
4787;DHT22;62338;48.832;9.422;2022-08-03T09:19:13;37.90;1.00
4787;DHT22;62338;48.832;9.422;2022-08-03T09:21:20;38.40;1.00
4787;DHT22;62338;48.832;9.422;2022-08-03T09:24:02;38.60;1.00
4787;DHT22;62338;48.832;9.422;2022-08-03T09:26:07;39.00;1.00
4787;DHT22;62338;48.832;9.422;2022-08-03T09:30:17;38.90;1.00
4787;DHT22;62338;48.832;9.422;2022-08-03T09:32:36;38.80;1.00
4787;DHT22;62338;48.832;9.422;2022-08-03T09:34:38;39.00;1.00
4787;DHT22;62338;48.832;9.422;2022-08-03T09:39:03;38.60;1.00
4787;DHT22;62338;48.832;9.422;2022-08-03T09:41:16;38.70;1.00
4787;DHT22;62338;48.832;9.422;2022-08-03T09:43:19;38.80;1.00
4787;DHT22;62338;48.832;9.422;2022-08-03T09:45:27;38.70;1.00
4787;DHT22;62338;48.832;9.422;2022-08-03T09:47:32;39.10;1.00
4787;DHT22;62338;48.832;9.422;2022-08-03T09:49:36;39.40;1.00
4787;DHT22;62338;48.832;9.422;2022-08-03T09:51:39;39.90;1.00
4787;DHT22;62338;48.832;9.422;2022-08-03T09:54:01;39.40;1.00
4787;DHT22;62338;48.832;9.422;2022-08-03T09:56:08;38.70;1.00
4787;DHT22;62338;48.832;9.422;2022-08-03T09:58:30;38.50;1.00
4787;DHT22;62338;48.832;9.422;2022-08-03T10:00:32;38.90;1.00
4787;DHT22;62338;48.832;9.422;2022-08-03T10:03:03;39.40;1.00
4787;DHT22;62338;48.832;9.422;2022-08-03T10:05:06;39.40;1.00
4787;DHT22;62338;48.832;9.422;2022-08-03T10:07:09;40.10;1.00
4787;DHT22;62338;48.832;9.422;2022-08-03T10:09:12;39.80;1.00
4787;DHT22;62338;48.832;9.422;2022-08-03T10:11:29;39.60;1.00
4787;DHT22;62338;48.832;9.422;2022-08-03T10:13:31;39.90;1.00
4787;DHT22;62338;48.832;9.422;2022-08-03T10:15:33;39.50;1.00
4787;DHT22;62338;48.832;9.422;2022-08-03T10:17:55;38.90;1.00
4787;DHT22;62338;48.832;9.422;2022-08-03T10:19:57;38.60;1.00
4787;DHT22;62338;48.832;9.422;2022-08-03T10:22:34;38.70;1.00
4787;DHT22;62338;48.832;9.422;2022-08-03T10:24:38;39.40;1.00
4787;DHT22;62338;48.832;9.422;2022-08-03T10:26:40;39.30;1.00
4787;DHT22;62338;48.832;9.422;2022-08-03T10:28:52;39.50;1.00
4787;DHT22;62338;48.832;9.422;2022-08-03T10:30:55;38.80;1.00
4787;DHT22;62338;48.832;9.422;2022-08-03T10:33:16;38.40;1.00
4787;DHT22;62338;48.832;9.422;2022-08-03T10:35:39;38.50;1.00
4787;DHT22;62338;48.832;9.422;2022-08-03T10:37:44;38.90;1.00
4787;DHT22;62338;48.832;9.422;2022-08-03T10:40:00;39.30;1.00
4787;DHT22;62338;48.832;9.422;2022-08-03T10:42:03;39.20;1.00
4787;DHT22;62338;48.832;9.422;2022-08-03T10:44:20;39.80;1.00
4787;DHT22;62338;48.832;9.422;2022-08-03T10:46:25;39.70;1.00
4787;DHT22;62338;48.832;9.422;2022-08-03T10:48:27;39.60;1.00
4787;DHT22;62338;48.832;9.422;2022-08-03T10:50:29;39.60;1.00
4787;DHT22;62338;48.832;9.422;2022-08-03T10:52:31;39.60;1.00
4787;DHT22;62338;48.832;9.422;2022-08-03T10:54:43;39.80;1.00
4787;DHT22;62338;48.832;9.422;2022-08-03T11:01:55;39.10;1.00
4787;DHT22;62338;48.832;9.422;2022-08-03T11:06:15;39.30;1.00
4787;DHT22;62338;48.832;9.422;2022-08-03T11:08:28;39.90;1.00
4787;DHT22;62338;48.832;9.422;2022-08-03T11:10:31;40.30;1.00
4787;DHT22;62338;48.832;9.422;2022-08-03T11:12:33;40.10;1.00
4787;DHT22;62338;48.832;9.422;2022-08-03T11:14:46;39.80;1.00
4787;DHT22;62338;48.832;9.422;2022-08-03T11:17:04;39.60;1.00
4787;DHT22;62338;48.832;9.422;2022-08-03T11:19:08;39.80;1.00
4787;DHT22;62338;48.832;9.422;2022-08-03T11:21:11;39.90;1.00
4787;DHT22;62338;48.832;9.422;2022-08-03T11:23:13;40.20;1.00
4787;DHT22;62338;48.832;9.422;2022-08-03T11:25:16;39.80;1.00
4787;DHT22;62338;48.832;9.422;2022-08-03T11:27:37;39.20;1.00
4787;DHT22;62338;48.832;9.422;2022-08-03T11:31:57;37.70;1.00
4787;DHT22;62338;48.832;9.422;2022-08-03T11:34:09;37.50;1.00
4787;DHT22;62338;48.832;9.422;2022-08-03T11:36:11;37.60;1.00
4787;DHT22;62338;48.832;9.422;2022-08-03T11:38:12;37.60;1.00
4787;DHT22;62338;48.832;9.422;2022-08-03T11:40:38;38.20;1.00
4787;DHT22;62338;48.832;9.422;2022-08-03T11:42:41;38.40;1.00
4787;DHT22;62338;48.832;9.422;2022-08-03T11:44:45;38.20;1.00
4787;DHT22;62338;48.832;9.422;2022-08-03T11:46:48;38.40;1.00
4787;DHT22;62338;48.832;9.422;2022-08-03T11:48:50;38.70;1.00
4787;DHT22;62338;48.832;9.422;2022-08-03T11:50:52;38.90;1.00
4787;DHT22;62338;48.832;9.422;2022-08-03T11:52:54;38.50;1.00
4787;DHT22;62338;48.832;9.422;2022-08-03T11:54:55;38.20;1.00
4787;DHT22;62338;48.832;9.422;2022-08-03T11:56:58;38.50;1.00
4787;DHT22;62338;48.832;9.422;2022-08-03T11:58:59;38.60;1.00
4787;DHT22;62338;48.832;9.422;2022-08-03T12:01:22;38.50;1.00
4787;DHT22;62338;48.832;9.422;2022-08-03T12:03:24;38.20;1.00
4787;DHT22;62338;48.832;9.422;2022-08-03T12:05:45;37.50;1.00
4787;DHT22;62338;48.832;9.422;2022-08-03T12:07:52;37.10;1.00
4787;DHT22;62338;48.832;9.422;2022-08-03T12:10:12;37.10;1.00
4787;DHT22;62338;48.832;9.422;2022-08-03T12:12:15;36.90;1.00
4787;DHT22;62338;48.832;9.422;2022-08-03T12:14:18;37.10;1.00
4787;DHT22;62338;48.832;9.422;2022-08-03T12:16:40;37.60;1.00
4787;DHT22;62338;48.832;9.422;2022-08-03T12:19:00;37.90;1.00
4787;DHT22;62338;48.832;9.422;2022-08-03T12:21:08;37.80;1.00
4787;DHT22;62338;48.832;9.422;2022-08-03T12:23:11;37.40;1.00
4787;DHT22;62338;48.832;9.422;2022-08-03T12:25:25;37.10;1.00
4787;DHT22;62338;48.832;9.422;2022-08-03T12:27:40;37.20;1.00
4787;DHT22;62338;48.832;9.422;2022-08-03T12:29:42;37.00;1.00
4787;DHT22;62338;48.832;9.422;2022-08-03T12:31:59;36.80;1.00
4787;DHT22;62338;48.832;9.422;2022-08-03T12:34:02;37.10;1.00
4787;DHT22;62338;48.832;9.422;2022-08-03T12:36:09;37.60;1.00
4787;DHT22;62338;48.832;9.422;2022-08-03T12:38:10;38.00;1.00
4787;DHT22;62338;48.832;9.422;2022-08-03T12:40:13;37.90;1.00
4787;DHT22;62338;48.832;9.422;2022-08-03T12:42:33;38.10;1.00
4787;DHT22;62338;48.832;9.422;2022-08-03T12:44:36;38.10;1.00
4787;DHT22;62338;48.832;9.422;2022-08-03T12:46:39;38.00;1.00
4787;DHT22;62338;48.832;9.422;2022-08-03T12:49:07;38.30;1.00
4787;DHT22;62338;48.832;9.422;2022-08-03T12:51:09;38.20;1.00
4787;DHT22;62338;48.832;9.422;2022-08-03T12:53:11;38.30;1.00
4787;DHT22;62338;48.832;9.422;2022-08-03T12:55:19;38.00;1.00
4787;DHT22;62338;48.832;9.422;2022-08-03T12:57:21;38.80;1.00
4787;DHT22;62338;48.832;9.422;2022-08-03T12:59:23;39.10;1.00
4787;DHT22;62338;48.832;9.422;2022-08-03T13:01:36;39.30;1.00
4787;DHT22;62338;48.832;9.422;2022-08-03T13:03:42;39.40;1.00
4787;DHT22;62338;48.832;9.422;2022-08-03T13:05:51;38.80;1.00
4787;DHT22;62338;48.832;9.422;2022-08-03T13:07:52;38.40;1.00
4787;DHT22;62338;48.832;9.422;2022-08-03T13:09:55;38.60;1.00
4787;DHT22;62338;48.832;9.422;2022-08-03T13:12:07;38.90;1.00
4787;DHT22;62338;48.832;9.422;2022-08-03T13:14:08;39.50;1.00
4787;DHT22;62338;48.832;9.422;2022-08-03T13:16:17;39.60;1.00
4787;DHT22;62338;48.832;9.422;2022-08-03T13:18:20;39.60;1.00
4787;DHT22;62338;48.832;9.422;2022-08-03T13:20:22;39.50;1.00
4787;DHT22;62338;48.832;9.422;2022-08-03T13:22:27;39.40;1.00
4787;DHT22;62338;48.832;9.422;2022-08-03T13:24:30;39.00;1.00
4787;DHT22;62338;48.832;9.422;2022-08-03T13:26:33;39.10;1.00
4787;DHT22;62338;48.832;9.422;2022-08-03T13:28:34;39.20;1.00
4787;DHT22;62338;48.832;9.422;2022-08-03T13:30:36;38.50;1.00
4787;DHT22;62338;48.832;9.422;2022-08-03T13:32:38;38.30;1.00
4787;DHT22;62338;48.832;9.422;2022-08-03T13:34:40;38.20;1.00
4787;DHT22;62338;48.832;9.422;2022-08-03T13:36:41;38.60;1.00
4787;DHT22;62338;48.832;9.422;2022-08-03T13:39:03;38.60;1.00
4787;DHT22;62338;48.832;9.422;2022-08-03T13:41:09;38.40;1.00
4787;DHT22;62338;48.832;9.422;2022-08-03T13:43:11;38.20;1.00
4787;DHT22;62338;48.832;9.422;2022-08-03T13:45:13;38.20;1.00
4787;DHT22;62338;48.832;9.422;2022-08-03T13:47:14;38.00;1.00
4787;DHT22;62338;48.832;9.422;2022-08-03T13:49:16;37.70;1.00
4787;DHT22;62338;48.832;9.422;2022-08-03T13:51:18;37.70;1.00
4787;DHT22;62338;48.832;9.422;2022-08-03T13:53:23;37.80;1.00
4787;DHT22;62338;48.832;9.422;2022-08-03T13:55:25;38.10;1.00
4787;DHT22;62338;48.832;9.422;2022-08-03T13:57:27;38.40;1.00
4787;DHT22;62338;48.832;9.422;2022-08-03T13:59:49;38.50;1.00
4787;DHT22;62338;48.832;9.422;2022-08-03T14:01:52;38.60;1.00